createdAt,value
2018-11-11T00:01:12.885Z,99.60
2018-11-11T00:03:41.368Z,99.60
2018-11-11T00:06:09.826Z,99.60
2018-11-11T00:08:38.317Z,99.50
2018-11-11T00:11:06.809Z,99.50
2018-11-11T00:13:35.273Z,99.40
2018-11-11T00:16:03.734Z,99.40
2018-11-11T00:18:32.378Z,99.40
2018-11-11T00:21:00.856Z,99.40
2018-11-11T00:23:29.325Z,99.40
2018-11-11T00:25:57.810Z,99.30
2018-11-11T00:28:26.375Z,99.30
2018-11-11T00:30:54.810Z,99.30
2018-11-11T00:33:23.281Z,99.30
2018-11-11T00:35:51.749Z,99.20
2018-11-11T00:38:20.220Z,99.20
2018-11-11T00:40:48.749Z,99.20
2018-11-11T00:43:17.232Z,99.20
2018-11-11T00:45:45.684Z,99.20
2018-11-11T00:48:14.160Z,99.20
2018-11-11T00:50:42.637Z,99.20
2018-11-11T00:53:11.113Z,99.20
2018-11-11T00:55:40.542Z,99.20
2018-11-11T00:58:08.993Z,99.20
2018-11-11T01:00:37.465Z,99.20
2018-11-11T01:03:06.102Z,99.20
2018-11-11T01:05:34.565Z,99.20
2018-11-11T01:08:03.038Z,99.20
2018-11-11T01:10:31.530Z,99.20
2018-11-11T01:13:00.007Z,99.20
2018-11-11T01:15:28.480Z,99.20
2018-11-11T01:17:56.981Z,99.20
2018-11-11T01:20:25.515Z,99.20
2018-11-11T01:22:54.068Z,99.20
2018-11-11T01:25:22.541Z,99.10
2018-11-11T01:27:51.015Z,99.10
2018-11-11T01:30:19.482Z,99.10
2018-11-11T01:32:48.058Z,99.10
2018-11-11T01:35:17.258Z,99.10
2018-11-11T01:37:45.963Z,99.10
2018-11-11T01:40:14.747Z,99.10
2018-11-11T01:42:43.261Z,99.10
2018-11-11T01:45:14.580Z,99.10
2018-11-11T01:47:43.573Z,99.20
2018-11-11T01:50:12.938Z,99.20
2018-11-11T01:52:41.542Z,99.20
2018-11-11T01:55:11.187Z,99.20
2018-11-11T01:57:39.808Z,99.20
2018-11-11T02:00:11.881Z,99.20
2018-11-11T02:02:40.557Z,99.20
2018-11-11T02:05:10.320Z,99.20
2018-11-11T02:07:38.781Z,99.10
2018-11-11T02:10:08.630Z,99.10
2018-11-11T02:12:37.398Z,99.30
2018-11-11T02:15:07.228Z,99.00
2018-11-11T02:17:35.787Z,98.90
2018-11-11T02:20:04.589Z,98.90
2018-11-11T02:22:33.068Z,98.80
2018-11-11T02:25:02.197Z,98.70
2018-11-11T02:27:30.662Z,98.50
2018-11-11T02:29:59.137Z,98.50
2018-11-11T02:32:27.687Z,98.40
2018-11-11T02:34:56.153Z,98.40
2018-11-11T02:37:24.633Z,98.40
2018-11-11T02:39:53.125Z,98.30
2018-11-11T02:42:21.605Z,98.20
2018-11-11T02:44:50.085Z,98.10
2018-11-11T02:47:18.550Z,98.10
2018-11-11T02:49:47.028Z,98.10
2018-11-11T02:52:15.514Z,98.10
2018-11-11T02:54:44.011Z,98.10
2018-11-11T02:57:13.505Z,98.00
2018-11-11T02:59:42.050Z,98.00
2018-11-11T03:02:10.698Z,98.00
2018-11-11T03:04:39.449Z,98.00
2018-11-11T03:07:08.233Z,97.90
2018-11-11T03:09:36.736Z,97.90
2018-11-11T03:12:05.329Z,97.80
2018-11-11T03:14:33.850Z,97.80
2018-11-11T03:17:02.341Z,97.90
2018-11-11T03:19:33.833Z,97.90
2018-11-11T03:22:02.324Z,97.90
2018-11-11T03:24:31.182Z,97.90
2018-11-11T03:26:59.647Z,97.90
2018-11-11T03:29:28.106Z,98.00
2018-11-11T03:31:56.555Z,97.90
2018-11-11T03:34:25.079Z,97.90
2018-11-11T03:36:53.589Z,97.90
2018-11-11T03:39:22.102Z,97.80
2018-11-11T03:41:50.597Z,97.80
2018-11-11T03:44:19.132Z,97.70
2018-11-11T03:46:47.612Z,97.70
2018-11-11T03:49:16.216Z,97.60
2018-11-11T03:51:44.704Z,97.70
2018-11-11T03:54:13.177Z,97.60
2018-11-11T03:56:41.639Z,97.50
2018-11-11T03:59:10.076Z,97.50
2018-11-11T04:01:38.574Z,97.50
2018-11-11T04:04:07.078Z,97.60
2018-11-11T04:06:35.587Z,97.60
2018-11-11T04:09:06.591Z,97.50
2018-11-11T04:11:35.087Z,97.40
2018-11-11T04:14:03.574Z,97.40
2018-11-11T04:16:32.055Z,97.40
2018-11-11T04:19:00.548Z,97.40
2018-11-11T04:21:29.175Z,97.30
2018-11-11T04:23:57.630Z,97.20
2018-11-11T04:26:26.079Z,97.10
2018-11-11T04:28:54.582Z,97.10
2018-11-11T04:31:23.080Z,97.10
2018-11-11T04:33:51.529Z,97.10
2018-11-11T04:36:20.030Z,97.00
2018-11-11T04:38:48.484Z,97.00
2018-11-11T04:41:16.933Z,97.00
2018-11-11T04:43:45.465Z,96.90
2018-11-11T04:46:13.964Z,96.80
2018-11-11T04:48:42.421Z,96.90
2018-11-11T04:51:10.915Z,96.80
2018-11-11T04:53:39.492Z,96.60
2018-11-11T04:56:07.944Z,96.20
2018-11-11T04:58:36.386Z,96.50
2018-11-11T05:01:04.867Z,96.40
2018-11-11T05:03:33.332Z,96.40
2018-11-11T05:06:01.800Z,96.30
2018-11-11T05:08:30.278Z,96.30
2018-11-11T05:10:58.718Z,96.30
2018-11-11T05:13:27.176Z,96.30
2018-11-11T05:15:55.671Z,96.20
2018-11-11T05:18:24.149Z,96.20
2018-11-11T05:20:52.613Z,96.20
2018-11-11T05:23:21.105Z,96.10
2018-11-11T05:25:49.613Z,96.20
2018-11-11T05:28:18.098Z,96.10
2018-11-11T05:30:46.567Z,96.10
2018-11-11T05:33:15.018Z,96.00
2018-11-11T05:35:43.474Z,96.00
2018-11-11T05:38:11.921Z,95.70
2018-11-11T05:40:40.371Z,95.80
2018-11-11T05:43:08.862Z,95.80
2018-11-11T05:45:37.339Z,95.60
2018-11-11T05:48:05.817Z,95.40
2018-11-11T05:50:34.389Z,95.30
2018-11-11T05:53:02.831Z,95.30
2018-11-11T05:55:31.310Z,95.30
2018-11-11T05:57:59.770Z,95.30
2018-11-11T06:00:28.279Z,95.20
2018-11-11T06:02:56.773Z,95.20
2018-11-11T06:05:25.242Z,95.20
2018-11-11T06:07:53.701Z,95.10
2018-11-11T06:10:22.168Z,95.00
2018-11-11T06:12:50.606Z,94.90
2018-11-11T06:15:19.073Z,94.90
2018-11-11T06:17:47.532Z,95.00
2018-11-11T06:20:16.872Z,95.00
2018-11-11T06:22:45.332Z,94.90
2018-11-11T06:25:13.828Z,95.10
2018-11-11T06:27:42.393Z,94.80
2018-11-11T06:30:12.352Z,94.80
2018-11-11T06:32:40.903Z,94.80
2018-11-11T06:35:09.413Z,94.70
2018-11-11T06:37:38.305Z,94.70
2018-11-11T06:40:08.503Z,94.50
2018-11-11T06:42:37.237Z,94.60
2018-11-11T06:45:07.300Z,94.50
2018-11-11T06:47:35.826Z,94.50
2018-11-11T06:50:04.832Z,94.30
2018-11-11T06:52:34.452Z,94.30
2018-11-11T06:55:07.993Z,94.40
2018-11-11T06:57:36.693Z,94.80
2018-11-11T07:00:07.422Z,94.30
2018-11-11T07:02:57.860Z,94.30
2018-11-11T07:05:26.358Z,94.20
2018-11-11T07:07:55.643Z,94.30
2018-11-11T07:10:24.334Z,94.40
2018-11-11T07:12:52.821Z,94.40
2018-11-11T07:15:21.339Z,94.30
2018-11-11T07:17:49.813Z,94.40
2018-11-11T07:20:19.789Z,94.40
2018-11-11T07:22:48.264Z,94.40
2018-11-11T07:25:19.591Z,94.40
2018-11-11T07:27:48.074Z,94.40
2018-11-11T07:30:17.347Z,94.30
2018-11-11T07:32:45.816Z,94.30
2018-11-11T07:35:14.301Z,94.30
2018-11-11T07:37:42.794Z,94.40
2018-11-11T07:40:13.293Z,94.40
2018-11-11T07:42:41.860Z,94.50
2018-11-11T07:45:10.381Z,94.60
2018-11-11T07:47:38.980Z,94.60
2018-11-11T07:50:08.777Z,94.70
2018-11-11T07:52:37.382Z,94.80
2018-11-11T07:55:07.322Z,94.80
2018-11-11T07:57:35.794Z,94.90
2018-11-11T08:00:06.503Z,94.90
2018-11-11T08:02:34.985Z,95.00
2018-11-11T08:05:03.547Z,95.20
2018-11-11T08:07:32.045Z,95.20
2018-11-11T08:10:00.562Z,95.10
2018-11-11T08:12:29.089Z,95.10
2018-11-11T08:14:57.620Z,94.90
2018-11-11T08:17:26.177Z,94.80
2018-11-11T08:19:54.670Z,94.70
2018-11-11T08:22:24.022Z,95.00
2018-11-11T08:24:52.581Z,95.10
2018-11-11T08:27:21.165Z,95.30
2018-11-11T08:29:49.788Z,95.80
2018-11-11T08:32:18.354Z,95.50
2018-11-11T08:34:46.816Z,95.50
2018-11-11T08:37:15.290Z,95.50
2018-11-11T08:39:43.770Z,95.50
2018-11-11T08:42:12.257Z,95.40
2018-11-11T08:44:40.750Z,95.30
2018-11-11T08:47:09.242Z,95.20
2018-11-11T08:49:37.705Z,95.30
2018-11-11T08:52:06.277Z,95.00
2018-11-11T08:54:34.746Z,94.70
2018-11-11T08:57:03.264Z,94.40
2018-11-11T08:59:31.774Z,94.50
2018-11-11T09:02:01.187Z,94.50
2018-11-11T09:04:29.657Z,94.60
2018-11-11T09:06:58.174Z,94.80
2018-11-11T09:09:26.694Z,94.80
2018-11-11T09:11:55.273Z,94.60
2018-11-11T09:14:23.787Z,94.60
2018-11-11T09:16:52.282Z,94.60
2018-11-11T09:19:20.782Z,94.60
2018-11-11T09:21:49.348Z,94.40
2018-11-11T09:24:17.965Z,94.50
2018-11-11T09:26:46.483Z,94.40
2018-11-11T09:29:15.007Z,94.10
2018-11-11T09:31:43.583Z,93.70
2018-11-11T09:34:12.148Z,93.90
2018-11-11T09:36:40.709Z,93.70
2018-11-11T09:39:10.719Z,93.20
2018-11-11T09:41:39.302Z,93.30
2018-11-11T09:44:07.833Z,92.90
2018-11-11T09:46:36.335Z,92.80
2018-11-11T09:49:04.894Z,92.60
2018-11-11T09:51:33.388Z,92.80
2018-11-11T09:54:01.952Z,92.60
2018-11-11T09:56:30.436Z,92.70
2018-11-11T09:58:58.902Z,92.40
2018-11-11T10:01:27.437Z,92.60
2018-11-11T10:04:00.969Z,92.70
2018-11-11T10:06:37.539Z,92.70
2018-11-11T10:09:13.053Z,92.80
2018-11-11T10:12:44.524Z,92.80
2018-11-11T10:15:18.261Z,92.90
2018-11-11T10:17:51.325Z,92.30
2018-11-11T10:20:27.992Z,92.30
2018-11-11T10:23:01.611Z,92.40
2018-11-11T10:25:52.170Z,92.10
2018-11-11T10:28:26.332Z,91.70
2018-11-11T10:30:58.686Z,91.90
2018-11-11T10:34:05.484Z,91.70
2018-11-11T10:36:39.068Z,91.10
2018-11-11T10:39:16.388Z,91.10
2018-11-11T10:42:04.489Z,90.80
2018-11-11T10:44:47.929Z,90.40
2018-11-11T10:47:21.321Z,90.10
2018-11-11T10:49:52.991Z,90.20
2018-11-11T10:52:21.798Z,90.00
2018-11-11T10:54:50.336Z,90.20
2018-11-11T10:57:18.850Z,90.00
2018-11-11T10:59:47.332Z,89.70
2018-11-11T11:02:18.113Z,89.60
2018-11-11T11:04:53.631Z,89.20
2018-11-11T11:07:22.145Z,89.80
2018-11-11T11:09:54.938Z,89.60
2018-11-11T11:12:25.152Z,89.00
2018-11-11T11:14:53.629Z,89.40
2018-11-11T11:17:22.165Z,89.50
2018-11-11T11:19:50.715Z,89.60
2018-11-11T11:22:19.238Z,89.70
2018-11-11T11:24:47.793Z,89.50
2018-11-11T11:27:16.391Z,89.60
2018-11-11T11:29:44.868Z,88.30
2018-11-11T11:32:13.473Z,88.70
2018-11-11T11:34:41.925Z,88.20
2018-11-11T11:37:10.436Z,88.70
2018-11-11T11:39:38.896Z,88.60
2018-11-11T11:42:07.406Z,88.70
2018-11-11T11:44:38.875Z,88.10
2018-11-11T11:47:07.412Z,87.10
2018-11-11T11:49:35.978Z,87.20
2018-11-11T11:52:05.025Z,87.90
2018-11-11T11:54:33.833Z,87.70
2018-11-11T11:57:02.910Z,87.70
2018-11-11T11:59:34.860Z,87.70
2018-11-11T12:02:03.408Z,87.60
2018-11-11T12:04:33.478Z,87.10
2018-11-11T12:07:02.881Z,87.40
2018-11-11T12:09:31.343Z,88.20
2018-11-11T12:11:59.843Z,86.80
2018-11-11T12:14:29.923Z,87.50
2018-11-11T12:16:59.343Z,87.30
2018-11-11T12:19:27.771Z,87.40
2018-11-11T12:21:56.248Z,87.10
2018-11-11T12:24:24.715Z,86.60
2018-11-11T12:26:53.213Z,87.50
2018-11-11T12:29:21.702Z,86.30
2018-11-11T12:31:50.188Z,86.10
2018-11-11T12:34:18.670Z,85.90
2018-11-11T12:36:48.218Z,86.30
2018-11-11T12:39:16.841Z,85.90
2018-11-11T12:41:45.274Z,86.40
2018-11-11T12:44:14.430Z,86.40
2018-11-11T12:46:42.970Z,86.80
2018-11-11T12:49:11.492Z,86.60
2018-11-11T12:51:39.945Z,86.40
2018-11-11T12:54:08.941Z,86.60
2018-11-11T12:56:37.426Z,86.50
2018-11-11T12:59:06.039Z,86.50
2018-11-11T13:01:34.513Z,86.90
2018-11-11T13:04:03.023Z,86.00
2018-11-11T13:06:31.520Z,86.30
2018-11-11T13:09:00.283Z,86.30
2018-11-11T13:11:28.868Z,86.50
2018-11-11T13:13:57.362Z,86.40
2018-11-11T13:16:25.789Z,86.00
2018-11-11T13:18:54.973Z,86.40
2018-11-11T13:21:23.486Z,86.10
2018-11-11T13:23:51.978Z,86.30
2018-11-11T13:26:20.477Z,85.70
2018-11-11T13:28:48.952Z,85.90
2018-11-11T13:31:17.433Z,85.90
2018-11-11T13:33:45.956Z,85.60
2018-11-11T13:36:14.405Z,85.60
2018-11-11T13:38:42.883Z,86.30
2018-11-11T13:41:13.377Z,86.10
2018-11-11T13:43:41.877Z,86.40
2018-11-11T13:46:10.432Z,86.80
2018-11-11T13:48:38.882Z,86.20
2018-11-11T13:51:07.467Z,86.20
2018-11-11T13:53:35.950Z,86.10
2018-11-11T13:56:04.478Z,86.10
2018-11-11T13:58:32.959Z,86.40
2018-11-11T14:01:01.434Z,86.50
2018-11-11T14:03:29.914Z,86.10
2018-11-11T14:05:58.425Z,86.20
2018-11-11T14:08:26.962Z,86.60
2018-11-11T14:10:55.712Z,86.70
2018-11-11T14:13:24.062Z,86.40
2018-11-11T14:15:52.633Z,86.50
2018-11-11T14:18:22.355Z,86.40
2018-11-11T14:20:50.880Z,86.50
2018-11-11T14:23:20.618Z,86.90
2018-11-11T14:25:49.200Z,86.90
2018-11-11T14:28:18.926Z,86.90
2018-11-11T14:30:48.058Z,86.60
2018-11-11T14:33:16.723Z,86.90
2018-11-11T14:35:45.274Z,87.00
2018-11-11T14:38:13.873Z,87.10
2018-11-11T14:40:43.099Z,87.80
2018-11-11T14:43:12.240Z,88.60
2018-11-11T14:45:40.726Z,89.00
2018-11-11T14:48:09.224Z,89.40
2018-11-11T14:50:37.748Z,89.90
2018-11-11T14:53:06.254Z,89.80
2018-11-11T14:55:34.790Z,90.00
2018-11-11T14:58:03.354Z,90.20
2018-11-11T15:00:33.178Z,90.40
2018-11-11T15:03:13.839Z,90.80
2018-11-11T15:05:42.397Z,91.00
2018-11-11T15:08:11.054Z,91.80
2018-11-11T15:10:39.614Z,92.60
2018-11-11T15:13:08.965Z,93.00
2018-11-11T15:15:37.452Z,93.60
2018-11-11T15:18:06.413Z,93.60
2018-11-11T15:20:35.490Z,93.80
2018-11-11T15:23:04.103Z,94.10
2018-11-11T15:25:32.867Z,94.20
2018-11-11T15:28:01.318Z,94.90
2018-11-11T15:30:31.321Z,94.50
2018-11-11T15:33:00.427Z,94.50
2018-11-11T15:35:28.933Z,94.70
2018-11-11T15:37:57.487Z,94.90
2018-11-11T15:40:27.468Z,95.00
2018-11-11T15:42:59.785Z,95.10
2018-11-11T15:45:31.783Z,95.30
2018-11-11T15:48:00.681Z,95.40
2018-11-11T15:50:31.371Z,95.40
2018-11-11T15:53:02.336Z,95.50
2018-11-11T15:55:32.228Z,95.60
2018-11-11T15:58:00.871Z,95.30
2018-11-11T16:00:31.738Z,95.50
2018-11-11T16:03:00.262Z,95.60
2018-11-11T16:05:28.847Z,95.70
2018-11-11T16:07:58.251Z,95.70
2018-11-11T16:10:27.900Z,95.70
2018-11-11T16:12:56.495Z,95.70
2018-11-11T16:15:30.190Z,95.70
2018-11-11T16:18:00.375Z,95.70
2018-11-11T16:20:29.896Z,95.70
2018-11-11T16:22:59.510Z,95.60
2018-11-11T16:25:28.193Z,95.60
2018-11-11T16:27:57.641Z,95.40
2018-11-11T16:30:27.891Z,95.40
2018-11-11T16:33:02.137Z,95.40
2018-11-11T16:35:31.301Z,95.20
2018-11-11T16:38:00.511Z,95.00
2018-11-11T16:40:32.015Z,94.80
2018-11-11T16:43:00.905Z,94.90
2018-11-11T16:45:30.331Z,94.80
2018-11-11T16:47:58.988Z,94.90
2018-11-11T16:50:33.161Z,94.90
2018-11-11T16:53:04.487Z,94.70
2018-11-11T16:55:34.199Z,94.80
2018-11-11T16:58:02.778Z,94.80
2018-11-11T17:00:33.977Z,94.80
2018-11-11T17:03:08.723Z,94.80
2018-11-11T17:05:39.921Z,94.80
2018-11-11T17:08:21.460Z,94.90
2018-11-11T17:10:51.973Z,94.90
2018-11-11T17:13:21.795Z,95.00
2018-11-11T17:15:51.338Z,95.00
2018-11-11T17:18:29.425Z,95.00
2018-11-11T17:21:01.331Z,95.20
2018-11-11T17:23:30.868Z,95.20
2018-11-11T17:25:59.504Z,95.20
2018-11-11T17:28:28.496Z,95.30
2018-11-11T17:30:57.116Z,95.40
2018-11-11T17:33:26.557Z,95.20
2018-11-11T17:36:08.694Z,95.30
2018-11-11T17:38:38.442Z,95.50
2018-11-11T17:41:07.003Z,95.40
2018-11-11T17:43:35.661Z,95.60
2018-11-11T17:46:04.321Z,95.60
2018-11-11T17:48:33.209Z,95.60
2018-11-11T17:51:02.745Z,95.60
2018-11-11T17:53:31.258Z,95.60
2018-11-11T17:55:59.784Z,95.60
2018-11-11T17:58:28.419Z,95.60
2018-11-11T18:01:00.068Z,95.70
2018-11-11T18:03:28.624Z,95.70
2018-11-11T18:05:57.088Z,95.60
2018-11-11T18:08:25.606Z,95.70
2018-11-11T18:10:54.288Z,95.70
2018-11-11T18:13:22.853Z,95.70
2018-11-11T18:15:51.520Z,95.80
2018-11-11T18:18:20.060Z,95.80
2018-11-11T18:20:48.647Z,95.80
2018-11-11T18:23:17.265Z,95.90
2018-11-11T18:25:46.001Z,95.90
2018-11-11T18:28:14.673Z,96.00
2018-11-11T18:30:43.230Z,96.10
2018-11-11T18:33:11.784Z,96.10
2018-11-11T18:35:40.424Z,96.10
2018-11-11T18:38:08.985Z,96.20
2018-11-11T18:40:37.502Z,96.20
2018-11-11T18:43:06.497Z,96.60
2018-11-11T18:45:35.107Z,96.60
2018-11-11T18:48:04.150Z,96.40
2018-11-11T18:50:33.781Z,96.30
2018-11-11T18:53:03.500Z,96.40
2018-11-11T18:55:34.164Z,96.40
2018-11-11T18:58:03.336Z,96.50
2018-11-11T19:00:33.462Z,96.60
2018-11-11T19:03:02.435Z,96.60
2018-11-11T19:05:32.053Z,96.60
2018-11-11T19:08:00.738Z,96.70
2018-11-11T19:10:32.662Z,96.70
2018-11-11T19:13:03.371Z,96.80
2018-11-11T19:15:31.903Z,96.90
2018-11-11T19:18:00.605Z,96.90
2018-11-11T19:20:29.531Z,97.00
2018-11-11T19:22:58.116Z,97.00
2018-11-11T19:25:27.942Z,97.10
2018-11-11T19:27:57.365Z,97.10
2018-11-11T19:30:26.945Z,97.30
2018-11-11T19:32:55.598Z,97.30
2018-11-11T19:35:24.230Z,97.40
2018-11-11T19:37:54.236Z,97.60
2018-11-11T19:40:24.233Z,97.70
2018-11-11T19:42:53.717Z,97.70
2018-11-11T19:45:23.713Z,97.70
2018-11-11T19:47:52.415Z,97.80
2018-11-11T19:50:22.317Z,97.80
2018-11-11T19:52:51.856Z,97.80
2018-11-11T19:55:21.002Z,97.80
2018-11-11T19:57:49.634Z,97.90
2018-11-11T20:00:21.857Z,97.90
2018-11-11T20:02:51.052Z,97.90
2018-11-11T20:05:20.189Z,98.00
2018-11-11T20:07:49.868Z,98.00
2018-11-11T20:10:19.218Z,98.10
2018-11-11T20:12:47.944Z,98.30
2018-11-11T20:15:19.299Z,98.30
2018-11-11T20:18:05.469Z,98.40
2018-11-11T20:20:35.673Z,98.70
2018-11-11T20:23:04.397Z,98.40
2018-11-11T20:25:32.961Z,98.40
2018-11-11T20:28:02.728Z,98.50
2018-11-11T20:30:33.512Z,98.50
2018-11-11T20:33:02.153Z,98.60
2018-11-11T20:35:33.809Z,98.70
2018-11-11T20:38:07.934Z,98.70
2018-11-11T20:40:36.557Z,98.70
2018-11-11T20:43:05.308Z,98.60
2018-11-11T20:45:34.518Z,98.60
2018-11-11T20:48:03.117Z,98.60
2018-11-11T20:53:13.645Z,98.70
2018-11-11T20:55:42.257Z,98.70
2018-11-11T20:58:10.730Z,98.70
2018-11-11T21:00:39.460Z,98.70
2018-11-11T21:03:08.269Z,98.70
2018-11-11T21:05:36.808Z,98.80
2018-11-11T21:08:05.514Z,98.80
2018-11-11T21:10:34.469Z,98.80
2018-11-11T21:13:02.914Z,98.80
2018-11-11T21:15:32.190Z,98.90
2018-11-11T21:18:00.840Z,98.90
2018-11-11T21:20:30.696Z,98.90
2018-11-11T21:22:59.236Z,99.00
2018-11-11T21:25:27.815Z,98.90
2018-11-11T21:27:56.270Z,99.00
2018-11-11T21:30:26.383Z,99.00
2018-11-11T21:32:54.887Z,98.90
2018-11-11T21:35:23.402Z,98.80
2018-11-11T21:37:51.912Z,98.70
2018-11-11T21:40:21.697Z,98.70
2018-11-11T21:42:50.896Z,98.80
2018-11-11T21:45:20.633Z,98.80
2018-11-11T21:47:49.365Z,98.80
2018-11-11T21:50:19.296Z,98.80
2018-11-11T21:53:12.025Z,98.80
2018-11-11T21:55:40.457Z,98.90
2018-11-11T21:58:08.961Z,98.90
2018-11-11T22:00:37.462Z,98.90
2018-11-11T22:03:06.047Z,99.00
2018-11-11T22:05:34.482Z,99.00
2018-11-11T22:08:02.971Z,99.10
2018-11-11T22:10:31.480Z,99.10
2018-11-11T22:13:00.015Z,99.30
2018-11-11T22:15:28.475Z,99.30
2018-11-11T22:17:56.971Z,99.30
2018-11-11T22:20:25.469Z,99.30
2018-11-11T22:22:53.934Z,99.30
2018-11-11T22:25:26.414Z,99.30
2018-11-11T22:27:54.934Z,99.30
2018-11-11T22:30:23.396Z,99.20
2018-11-11T22:32:51.874Z,99.20
2018-11-11T22:35:20.313Z,99.10
2018-11-11T22:37:48.858Z,99.10
2018-11-11T22:40:17.324Z,99.00
2018-11-11T22:42:45.771Z,99.00
2018-11-11T22:45:15.188Z,98.90
2018-11-11T22:47:43.653Z,98.90
2018-11-11T22:50:14.026Z,98.90
2018-11-11T22:52:42.593Z,98.80
2018-11-11T22:55:11.581Z,98.80
2018-11-11T22:57:40.572Z,98.80
2018-11-11T23:00:16.196Z,98.80
2018-11-11T23:02:45.545Z,98.70
2018-11-11T23:05:14.534Z,98.70
2018-11-11T23:07:42.978Z,98.70
2018-11-11T23:10:11.462Z,98.70
2018-11-11T23:12:40.035Z,99.00
2018-11-11T23:15:10.100Z,98.70
2018-11-11T23:17:38.558Z,98.60
2018-11-11T23:20:09.896Z,98.60
2018-11-11T23:22:38.702Z,98.60
2018-11-11T23:25:08.581Z,98.60
2018-11-11T23:27:37.413Z,98.60
2018-11-11T23:30:08.681Z,98.60
2018-11-11T23:32:37.158Z,98.70
2018-11-11T23:35:08.182Z,98.60
2018-11-11T23:37:36.822Z,98.60
2018-11-11T23:40:06.444Z,98.60
2018-11-11T23:42:34.907Z,98.50
2018-11-11T23:45:03.425Z,98.60
2018-11-11T23:47:31.906Z,98.60
2018-11-11T23:50:00.361Z,98.60
2018-11-11T23:52:28.868Z,98.60
2018-11-11T23:54:57.349Z,98.60
2018-11-11T23:57:25.859Z,98.60
2018-11-11T23:59:54.393Z,98.60
